createdAt,value
2023-03-18T00:01:11.284Z,19.17
2023-03-18T00:03:40.786Z,20.70
2023-03-18T00:06:11.619Z,19.38
2023-03-18T00:08:40.215Z,22.20
2023-03-18T00:11:10.041Z,22.30
2023-03-18T00:13:38.435Z,22.98
2023-03-18T00:16:07.722Z,21.30
2023-03-18T00:18:36.654Z,21.27
2023-03-18T00:21:06.764Z,20.92
2023-03-18T00:23:35.607Z,21.33
2023-03-18T00:26:04.160Z,25.77
2023-03-18T00:28:32.669Z,25.70
2023-03-18T00:31:08.628Z,24.52
2023-03-18T00:33:38.119Z,24.58
2023-03-18T00:36:10.045Z,25.73
2023-03-18T00:38:38.456Z,25.65
2023-03-18T00:41:11.930Z,27.73
2023-03-18T00:43:47.063Z,31.25
2023-03-18T00:46:17.689Z,31.00
2023-03-18T00:48:46.785Z,26.67
2023-03-18T00:51:17.330Z,26.02
2023-03-18T00:53:47.717Z,27.15
2023-03-18T00:56:19.460Z,27.95
2023-03-18T00:58:48.027Z,27.63
2023-03-18T01:01:17.192Z,32.70
2023-03-18T01:03:46.188Z,34.20
2023-03-18T01:06:20.644Z,33.67
2023-03-18T01:08:48.660Z,33.45
2023-03-18T01:11:17.115Z,32.90
2023-03-18T01:13:46.003Z,33.47
2023-03-18T01:16:14.537Z,32.33
2023-03-18T01:18:42.932Z,30.40
2023-03-18T01:21:12.076Z,31.75
2023-03-18T01:23:42.363Z,31.77
2023-03-18T01:26:10.772Z,33.10
2023-03-18T01:28:38.785Z,30.65
2023-03-18T01:31:08.124Z,31.95
2023-03-18T01:33:36.780Z,32.42
2023-03-18T01:36:05.677Z,33.03
2023-03-18T01:38:33.776Z,33.95
2023-03-18T01:41:03.546Z,35.80
2023-03-18T01:43:34.921Z,31.90
2023-03-18T01:46:23.580Z,27.58
2023-03-18T01:48:52.731Z,28.48
2023-03-18T01:51:22.466Z,30.33
2023-03-18T01:53:51.582Z,30.60
2023-03-18T01:56:22.173Z,30.77
2023-03-18T01:58:53.620Z,30.15
2023-03-18T02:01:27.796Z,28.63
2023-03-18T02:03:57.023Z,28.80
2023-03-18T02:06:25.840Z,30.30
2023-03-18T02:08:54.080Z,28.88
2023-03-18T02:13:52.541Z,27.27
2023-03-18T02:16:25.617Z,29.02
2023-03-18T02:18:57.649Z,33.50
2023-03-18T02:21:38.847Z,31.10
2023-03-18T02:24:17.205Z,34.35
2023-03-18T02:26:52.621Z,31.50
2023-03-18T02:29:23.632Z,32.53
2023-03-18T02:31:52.480Z,35.00
2023-03-18T02:34:21.698Z,36.85
2023-03-18T02:36:49.864Z,36.72
2023-03-18T02:39:18.047Z,33.95
2023-03-18T02:41:46.218Z,31.83
2023-03-18T02:44:14.283Z,34.65
2023-03-18T02:46:53.939Z,34.97
2023-03-18T02:49:22.650Z,37.22
2023-03-18T02:51:51.589Z,35.60
2023-03-18T02:54:21.929Z,32.80
2023-03-18T02:56:50.006Z,30.73
2023-03-18T02:59:18.023Z,33.42
2023-03-18T03:01:50.272Z,35.95
2023-03-18T03:04:20.318Z,34.35
2023-03-18T03:06:48.299Z,32.92
2023-03-18T03:09:18.010Z,36.33
2023-03-18T03:11:47.471Z,34.42
2023-03-18T03:14:16.763Z,30.58
2023-03-18T03:16:45.194Z,31.33
2023-03-18T03:19:14.645Z,30.02
2023-03-18T03:21:42.529Z,28.23
2023-03-18T03:24:11.001Z,29.17
2023-03-18T03:26:39.305Z,32.03
2023-03-18T03:29:07.801Z,28.83
2023-03-18T03:31:36.790Z,30.30
2023-03-18T03:34:04.985Z,34.03
2023-03-18T03:36:34.483Z,39.30
2023-03-18T03:39:02.438Z,43.70
2023-03-18T03:41:30.382Z,46.33
2023-03-18T03:43:58.596Z,47.33
2023-03-18T03:46:26.637Z,45.90
2023-03-18T03:48:54.814Z,44.05
2023-03-18T03:51:22.747Z,43.38
2023-03-18T03:53:52.001Z,39.20
2023-03-18T03:56:19.958Z,41.65
2023-03-18T03:58:47.952Z,46.50
2023-03-18T04:01:15.959Z,42.83
2023-03-18T04:03:44.374Z,47.35
2023-03-18T04:06:12.450Z,43.03
2023-03-18T04:08:40.392Z,40.05
2023-03-18T04:11:10.065Z,44.53
2023-03-18T04:13:37.997Z,41.22
2023-03-18T04:16:07.803Z,37.58
2023-03-18T04:18:35.769Z,39.65
2023-03-18T04:21:03.729Z,39.78
2023-03-18T04:23:33.122Z,46.25
2023-03-18T04:26:01.611Z,42.15
2023-03-18T04:28:31.038Z,40.08
2023-03-18T04:30:59.716Z,48.20
2023-03-18T04:33:28.121Z,42.95
2023-03-18T04:35:56.384Z,44.97
2023-03-18T04:38:24.545Z,39.35
2023-03-18T04:40:52.656Z,43.10
2023-03-18T04:43:21.065Z,47.35
2023-03-18T04:45:50.383Z,44.65
2023-03-18T04:48:18.353Z,42.53
2023-03-18T04:50:46.741Z,44.53
2023-03-18T04:53:14.710Z,42.40
2023-03-18T04:55:43.500Z,42.60
2023-03-18T04:58:11.544Z,44.35
2023-03-18T05:00:39.566Z,28.65
2023-03-18T05:03:08.868Z,37.80
2023-03-18T05:05:38.660Z,41.40
2023-03-18T05:08:07.460Z,45.03
2023-03-18T05:10:36.088Z,40.85
2023-03-18T05:13:04.545Z,38.67
2023-03-18T05:15:32.765Z,43.90
2023-03-18T05:18:01.322Z,42.38
2023-03-18T05:20:30.667Z,46.53
2023-03-18T05:22:58.879Z,42.08
2023-03-18T05:25:27.218Z,46.08
2023-03-18T05:27:55.666Z,50.05
2023-03-18T05:30:23.931Z,46.35
2023-03-18T05:32:52.726Z,50.53
2023-03-18T05:35:21.994Z,50.28
2023-03-18T05:37:51.923Z,55.47
2023-03-18T05:40:19.991Z,52.95
2023-03-18T05:42:55.772Z,55.10
2023-03-18T05:45:24.685Z,55.65
2023-03-18T05:47:53.046Z,49.20
2023-03-18T05:50:30.114Z,46.33
2023-03-18T05:52:59.590Z,42.15
2023-03-18T05:55:28.281Z,41.63
2023-03-18T05:57:56.632Z,37.00
2023-03-18T06:00:25.685Z,34.70
2023-03-18T06:02:54.048Z,40.63
2023-03-18T06:05:22.664Z,37.92
2023-03-18T06:07:50.975Z,38.28
2023-03-18T06:10:20.489Z,35.47
2023-03-18T06:12:49.267Z,30.27
2023-03-18T06:15:17.282Z,32.83
2023-03-18T06:17:45.633Z,33.05
2023-03-18T06:20:15.762Z,38.45
2023-03-18T06:22:48.973Z,43.97
2023-03-18T06:25:20.689Z,41.90
2023-03-18T06:27:49.010Z,43.47
2023-03-18T06:30:18.033Z,47.05
2023-03-18T06:32:46.185Z,48.47
2023-03-18T06:35:15.542Z,51.88
2023-03-18T06:37:43.871Z,52.53
2023-03-18T06:40:13.250Z,48.85
2023-03-18T06:42:42.662Z,59.65
2023-03-18T06:45:11.706Z,67.15
2023-03-18T06:47:40.816Z,63.42
2023-03-18T06:50:09.404Z,55.83
2023-03-18T06:52:38.441Z,60.55
2023-03-18T06:55:07.731Z,68.38
2023-03-18T06:57:35.671Z,67.57
2023-03-18T07:00:06.168Z,65.97
2023-03-18T07:02:34.607Z,61.33
2023-03-18T07:05:02.648Z,62.03
2023-03-18T07:07:30.739Z,71.57
2023-03-18T07:09:59.096Z,65.55
2023-03-18T07:12:28.434Z,66.97
2023-03-18T07:14:56.334Z,71.95
2023-03-18T07:17:25.688Z,76.90
2023-03-18T07:19:53.968Z,72.45
2023-03-18T07:22:22.197Z,84.90
2023-03-18T07:24:50.324Z,86.78
2023-03-18T07:27:18.359Z,84.95
2023-03-18T07:29:46.627Z,89.10
2023-03-18T07:32:15.136Z,88.07
2023-03-18T07:34:44.541Z,99.75
2023-03-18T07:37:13.095Z,92.57
2023-03-18T07:39:41.258Z,97.68
2023-03-18T07:42:09.649Z,107.78
2023-03-18T07:44:37.891Z,105.15
2023-03-18T07:47:06.286Z,102.15
2023-03-18T07:49:34.748Z,99.22
2023-03-18T07:52:04.915Z,96.70
2023-03-18T07:54:33.302Z,99.00
2023-03-18T07:57:01.802Z,90.63
2023-03-18T07:59:30.100Z,69.53
2023-03-18T08:01:58.293Z,67.78
2023-03-18T08:04:26.435Z,69.40
2023-03-18T08:06:55.220Z,56.25
2023-03-18T08:09:26.863Z,41.38
2023-03-18T08:11:55.368Z,41.72
2023-03-18T08:14:23.510Z,35.30
2023-03-18T08:16:52.167Z,32.20
2023-03-18T08:19:20.213Z,31.27
2023-03-18T08:21:48.374Z,32.25
2023-03-18T08:24:18.408Z,28.17
2023-03-18T08:26:47.781Z,28.80
2023-03-18T08:29:15.798Z,29.73
2023-03-18T08:31:44.260Z,29.70
2023-03-18T08:34:12.405Z,27.10
2023-03-18T08:36:42.545Z,28.40
2023-03-18T08:39:11.153Z,27.35
2023-03-18T08:41:40.162Z,25.85
2023-03-18T08:44:10.791Z,29.67
2023-03-18T08:46:38.869Z,27.05
2023-03-18T08:49:07.674Z,26.23
2023-03-18T08:51:36.053Z,27.45
2023-03-18T08:54:04.106Z,25.48
2023-03-18T08:56:32.243Z,24.50
2023-03-18T08:59:00.409Z,24.90
2023-03-18T09:01:30.296Z,22.88
2023-03-18T09:03:59.503Z,25.63
2023-03-18T09:06:27.974Z,24.27
2023-03-18T09:08:56.128Z,24.42
2023-03-18T09:11:24.843Z,23.55
2023-03-18T09:13:53.631Z,23.10
2023-03-18T09:16:21.838Z,21.65
2023-03-18T09:18:51.355Z,22.15
2023-03-18T09:21:20.308Z,21.52
2023-03-18T09:23:49.637Z,23.83
2023-03-18T09:26:18.353Z,21.17
2023-03-18T09:28:46.496Z,21.95
2023-03-18T09:31:15.672Z,21.38
2023-03-18T09:33:43.861Z,18.27
2023-03-18T09:36:13.906Z,17.98
2023-03-18T09:38:42.528Z,16.75
2023-03-18T09:41:30.861Z,16.70
2023-03-18T09:44:10.609Z,18.27
2023-03-18T09:46:54.019Z,18.45
2023-03-18T09:49:43.901Z,21.27
2023-03-18T09:52:23.249Z,21.58
2023-03-18T09:54:58.799Z,22.15
2023-03-18T09:57:30.011Z,24.65
2023-03-18T10:00:06.344Z,24.35
2023-03-18T10:02:39.721Z,24.05
2023-03-18T10:05:13.676Z,24.30
2023-03-18T10:07:44.683Z,21.83
2023-03-18T10:10:23.119Z,22.00
2023-03-18T10:12:57.036Z,22.13
2023-03-18T10:15:32.049Z,21.02
2023-03-18T10:18:06.271Z,20.17
2023-03-18T10:20:43.248Z,19.77
2023-03-18T10:23:26.687Z,18.20
2023-03-18T10:25:57.761Z,16.80
2023-03-18T10:29:00.451Z,15.30
2023-03-18T10:31:37.601Z,14.38
2023-03-18T10:34:11.560Z,15.40
2023-03-18T10:36:47.400Z,13.88
2023-03-18T10:39:20.365Z,12.05
2023-03-18T10:41:51.215Z,12.82
2023-03-18T10:44:23.931Z,14.40
2023-03-18T10:46:58.528Z,12.63
2023-03-18T10:49:31.154Z,11.27
2023-03-18T10:52:06.156Z,11.30
2023-03-18T10:54:38.742Z,11.50
2023-03-18T10:57:07.172Z,12.63
2023-03-18T10:59:35.609Z,11.70
2023-03-18T11:02:06.442Z,12.65
2023-03-18T11:04:39.878Z,12.57
2023-03-18T11:07:15.506Z,11.48
2023-03-18T11:09:45.608Z,11.52
2023-03-18T11:12:19.327Z,11.63
2023-03-18T11:14:49.931Z,11.95
2023-03-18T11:17:23.925Z,12.10
2023-03-18T11:20:02.236Z,12.40
2023-03-18T11:22:33.126Z,12.30
2023-03-18T11:25:07.101Z,12.00
2023-03-18T11:27:39.500Z,13.63
2023-03-18T11:30:32.730Z,11.45
2023-03-18T11:33:06.030Z,11.93
2023-03-18T11:38:07.557Z,11.35
2023-03-18T11:40:41.143Z,12.23
2023-03-18T11:43:18.842Z,11.52
2023-03-18T11:45:59.041Z,10.80
2023-03-18T11:48:36.930Z,11.02
2023-03-18T11:51:27.098Z,10.65
2023-03-18T11:54:08.548Z,10.55
2023-03-18T11:56:43.724Z,10.60
2023-03-18T11:59:33.584Z,11.23
2023-03-18T12:02:25.248Z,10.35
2023-03-18T12:05:22.560Z,10.00
2023-03-18T12:08:04.140Z,9.90
2023-03-18T12:10:36.437Z,10.13
2023-03-18T12:15:58.790Z,9.93
2023-03-18T12:18:45.724Z,9.95
2023-03-18T12:21:33.480Z,9.63
2023-03-18T12:24:24.254Z,9.30
2023-03-18T12:27:02.934Z,9.32
2023-03-18T12:29:45.999Z,8.02
2023-03-18T12:32:26.412Z,7.35
2023-03-18T12:35:11.948Z,6.60
2023-03-18T12:37:52.492Z,6.38
2023-03-18T12:40:36.367Z,6.95
2023-03-18T12:43:28.661Z,6.10
2023-03-18T12:46:03.139Z,4.80
2023-03-18T12:48:44.088Z,4.22
2023-03-18T12:51:18.264Z,4.53
2023-03-18T12:53:50.344Z,4.32
2023-03-18T12:56:21.712Z,3.92
2023-03-18T12:58:54.128Z,3.30
2023-03-18T13:01:25.852Z,4.00
2023-03-18T13:03:58.654Z,3.58
2023-03-18T13:06:32.076Z,3.30
2023-03-18T13:09:15.526Z,2.90
2023-03-18T13:12:12.613Z,2.83
2023-03-18T13:14:49.585Z,2.60
2023-03-18T13:17:25.613Z,2.80
2023-03-18T13:19:58.187Z,3.17
2023-03-18T13:22:47.176Z,3.50
2023-03-18T13:25:25.164Z,4.95
2023-03-18T13:28:09.732Z,4.97
2023-03-18T13:30:54.031Z,4.55
2023-03-18T13:33:56.511Z,4.70
2023-03-18T13:36:49.292Z,4.45
2023-03-18T13:39:27.742Z,4.10
2023-03-18T13:42:17.881Z,4.05
2023-03-18T13:44:51.195Z,4.13
2023-03-18T13:47:21.783Z,3.35
2023-03-18T13:49:59.059Z,3.40
2023-03-18T13:52:36.524Z,3.60
2023-03-18T13:55:08.366Z,3.28
2023-03-18T13:57:48.925Z,2.58
2023-03-18T14:00:33.360Z,2.55
2023-03-18T14:03:23.302Z,2.50
2023-03-18T14:05:52.437Z,2.47
2023-03-18T14:08:48.560Z,2.00
2023-03-18T14:11:47.993Z,2.03
2023-03-18T14:14:57.887Z,2.20
2023-03-18T14:17:47.576Z,2.20
2023-03-18T14:20:40.703Z,2.85
2023-03-18T14:23:33.466Z,2.25
2023-03-18T14:26:05.101Z,2.80
2023-03-18T14:28:45.404Z,2.70
2023-03-18T14:31:35.379Z,2.85
2023-03-18T14:34:19.904Z,2.60
2023-03-18T14:37:25.393Z,2.75
2023-03-18T14:39:56.492Z,2.50
2023-03-18T14:42:38.973Z,2.88
2023-03-18T14:45:14.632Z,2.75
2023-03-18T14:47:47.733Z,2.50
2023-03-18T14:50:28.871Z,2.70
2023-03-18T14:53:03.969Z,2.58
2023-03-18T14:55:35.461Z,2.38
2023-03-18T14:58:05.418Z,2.28
2023-03-18T15:00:37.285Z,2.83
2023-03-18T15:03:08.943Z,2.60
2023-03-18T15:05:40.151Z,2.67
2023-03-18T15:08:15.819Z,2.50
2023-03-18T15:10:44.570Z,2.67
2023-03-18T15:13:16.321Z,2.70
2023-03-18T15:15:44.372Z,2.40
2023-03-18T15:18:20.776Z,3.15
2023-03-18T15:20:52.841Z,2.90
2023-03-18T15:25:51.619Z,3.17
2023-03-18T15:28:25.020Z,2.83
2023-03-18T15:30:56.056Z,2.97
2023-03-18T15:33:27.244Z,2.80
2023-03-18T15:35:56.398Z,2.80
2023-03-18T15:38:28.966Z,2.97
2023-03-18T15:41:01.106Z,2.90
2023-03-18T15:46:02.714Z,2.28
2023-03-18T15:48:35.043Z,2.83
2023-03-18T15:51:05.298Z,2.30
2023-03-18T15:53:43.336Z,2.38
2023-03-18T15:56:18.273Z,2.33
2023-03-18T15:58:58.060Z,2.30
2023-03-18T16:01:26.071Z,2.33
2023-03-18T16:03:54.652Z,2.15
2023-03-18T16:06:23.488Z,2.30
2023-03-18T16:08:51.437Z,2.35
2023-03-18T16:11:19.593Z,2.20
2023-03-18T16:13:48.993Z,2.15
2023-03-18T16:16:21.301Z,2.33
2023-03-18T16:18:49.557Z,2.20
2023-03-18T16:21:17.829Z,2.20
2023-03-18T16:23:47.001Z,2.35
2023-03-18T16:26:17.890Z,2.10
2023-03-18T16:28:48.554Z,2.17
2023-03-18T16:31:18.711Z,2.30
2023-03-18T16:33:47.303Z,1.80
2023-03-18T16:36:26.066Z,2.58
2023-03-18T16:38:54.270Z,2.17
2023-03-18T16:41:22.491Z,2.30
2023-03-18T16:43:50.859Z,2.15
2023-03-18T16:46:20.466Z,2.22
2023-03-18T16:48:49.955Z,1.95
2023-03-18T16:51:18.986Z,2.60
2023-03-18T16:53:47.227Z,2.33
2023-03-18T16:56:17.993Z,2.40
2023-03-18T16:58:46.364Z,2.30
2023-03-18T17:01:16.712Z,2.30
2023-03-18T17:03:46.560Z,2.10
2023-03-18T17:06:15.177Z,2.28
2023-03-18T17:08:43.206Z,2.17
2023-03-18T17:11:18.104Z,1.75
2023-03-18T17:13:47.097Z,1.90
2023-03-18T17:16:19.535Z,2.20
2023-03-18T17:18:49.618Z,2.00
2023-03-18T17:21:18.237Z,2.00
2023-03-18T17:23:47.642Z,2.28
2023-03-18T17:26:16.177Z,2.17
2023-03-18T17:28:47.632Z,2.33
2023-03-18T17:31:16.800Z,1.98
2023-03-18T17:33:44.900Z,2.00
2023-03-18T17:36:14.227Z,2.25
2023-03-18T17:38:42.201Z,2.85
2023-03-18T17:41:18.947Z,2.60
2023-03-18T17:43:47.350Z,2.63
2023-03-18T17:46:15.446Z,3.83
2023-03-18T17:48:43.744Z,3.58
2023-03-18T17:51:17.469Z,3.67
2023-03-18T17:53:47.893Z,3.55
2023-03-18T17:56:17.802Z,3.40
2023-03-18T17:58:47.417Z,2.90
2023-03-18T18:01:18.399Z,4.20
2023-03-18T18:03:47.575Z,4.20
2023-03-18T18:06:20.362Z,6.18
2023-03-18T18:08:48.766Z,5.10
2023-03-18T18:11:20.864Z,6.22
2023-03-18T18:13:50.000Z,6.32
2023-03-18T18:16:18.825Z,4.60
2023-03-18T18:18:49.700Z,4.97
2023-03-18T18:21:21.650Z,7.20
2023-03-18T18:23:49.623Z,5.68
2023-03-18T18:26:19.574Z,5.70
2023-03-18T18:28:49.432Z,6.85
2023-03-18T18:31:19.335Z,6.38
2023-03-18T18:33:50.123Z,7.47
2023-03-18T18:36:19.647Z,7.22
2023-03-18T18:38:47.586Z,7.63
2023-03-18T18:41:15.521Z,6.70
2023-03-18T18:43:43.565Z,8.23
2023-03-18T18:46:14.773Z,9.98
2023-03-18T18:48:44.713Z,8.47
2023-03-18T18:51:17.445Z,8.32
2023-03-18T18:53:47.756Z,8.15
2023-03-18T18:56:19.708Z,8.15
2023-03-18T18:58:49.349Z,8.77
2023-03-18T19:01:18.389Z,10.73
2023-03-18T19:03:48.280Z,12.88
2023-03-18T19:06:26.182Z,14.07
2023-03-18T19:08:57.757Z,10.80
2023-03-18T19:11:26.714Z,6.53
2023-03-18T19:13:55.345Z,6.18
2023-03-18T19:16:30.392Z,7.60
2023-03-18T19:18:59.912Z,5.68
2023-03-18T19:21:28.614Z,5.18
2023-03-18T19:23:58.750Z,5.80
2023-03-18T19:26:27.332Z,6.45
2023-03-18T19:28:59.400Z,7.75
2023-03-18T19:31:30.640Z,8.57
2023-03-18T19:34:00.680Z,7.55
2023-03-18T19:36:30.966Z,9.90
2023-03-18T19:39:02.310Z,8.77
2023-03-18T19:41:31.588Z,11.00
2023-03-18T19:44:04.191Z,11.85
2023-03-18T19:46:39.120Z,11.05
2023-03-18T19:49:14.077Z,21.48
2023-03-18T19:51:42.589Z,11.98
2023-03-18T19:54:33.720Z,11.35
2023-03-18T19:57:04.246Z,13.82
2023-03-18T19:59:38.644Z,13.73
2023-03-18T20:02:19.272Z,11.38
2023-03-18T20:04:49.451Z,11.10
2023-03-18T20:07:19.315Z,10.68
2023-03-18T20:09:49.678Z,11.45
2023-03-18T20:12:26.912Z,11.23
2023-03-18T20:14:55.202Z,11.77
2023-03-18T20:17:36.698Z,16.95
2023-03-18T20:20:05.447Z,15.18
2023-03-18T20:22:37.642Z,14.73
2023-03-18T20:25:13.531Z,16.45
2023-03-18T20:27:41.672Z,16.98
2023-03-18T20:30:24.218Z,18.42
2023-03-18T20:32:52.541Z,20.23
2023-03-18T20:35:21.403Z,16.88
2023-03-18T20:37:49.678Z,19.48
2023-03-18T20:40:23.114Z,16.75
2023-03-18T20:42:52.573Z,20.98
2023-03-18T20:45:22.373Z,20.85
2023-03-18T20:47:51.123Z,16.25
2023-03-18T20:50:21.406Z,18.13
2023-03-18T20:52:50.718Z,19.75
2023-03-18T20:55:29.179Z,16.88
2023-03-18T20:57:57.918Z,17.60
2023-03-18T21:00:27.855Z,22.27
2023-03-18T21:02:58.007Z,22.65
2023-03-18T21:05:26.176Z,20.55
2023-03-18T21:07:54.364Z,24.55
2023-03-18T21:10:26.093Z,24.73
2023-03-18T21:12:54.460Z,24.77
2023-03-18T21:15:24.309Z,23.17
2023-03-18T21:17:52.754Z,23.33
2023-03-18T21:20:23.210Z,23.42
2023-03-18T21:22:52.197Z,22.70
2023-03-18T21:25:21.800Z,19.52
2023-03-18T21:27:51.777Z,23.35
2023-03-18T21:30:22.169Z,23.50
2023-03-18T21:32:51.222Z,23.52
2023-03-18T21:35:21.656Z,25.65
2023-03-18T21:37:49.657Z,24.83
2023-03-18T21:40:20.334Z,25.92
2023-03-18T21:42:49.257Z,25.52
2023-03-18T21:45:20.558Z,17.77
2023-03-18T21:47:48.864Z,13.88
2023-03-18T21:50:22.134Z,17.88
2023-03-18T21:52:50.375Z,19.95
2023-03-18T21:55:18.697Z,19.13
2023-03-18T21:57:48.812Z,17.05
2023-03-18T22:00:21.736Z,19.60
2023-03-18T22:02:50.457Z,20.58
2023-03-18T22:05:20.424Z,18.05
2023-03-18T22:07:50.285Z,20.65
2023-03-18T22:10:20.288Z,14.95
2023-03-18T22:12:48.386Z,17.60
2023-03-18T22:15:39.121Z,17.63
2023-03-18T22:18:08.389Z,18.50
2023-03-18T22:20:37.274Z,20.30
2023-03-18T22:23:14.697Z,19.08
2023-03-18T22:25:43.403Z,20.58
2023-03-18T22:28:12.716Z,21.23
2023-03-18T22:30:44.079Z,20.33
2023-03-18T22:33:20.157Z,13.17
2023-03-18T22:35:48.706Z,19.02
2023-03-18T22:38:18.434Z,19.30
2023-03-18T22:40:48.314Z,20.85
2023-03-18T22:43:26.824Z,20.60
2023-03-18T22:45:56.805Z,17.63
2023-03-18T22:48:24.853Z,19.10
2023-03-18T22:50:53.691Z,23.02
2023-03-18T22:53:23.806Z,24.15
2023-03-18T22:55:54.481Z,20.70
2023-03-18T22:58:24.792Z,25.02
2023-03-18T23:00:53.241Z,25.58
2023-03-18T23:03:24.458Z,26.33
2023-03-18T23:05:54.437Z,23.65
2023-03-18T23:08:23.641Z,24.52
2023-03-18T23:10:53.550Z,27.23
2023-03-18T23:13:28.614Z,31.80
2023-03-18T23:15:58.131Z,30.73
2023-03-18T23:18:27.608Z,26.10
2023-03-18T23:20:55.935Z,32.95
2023-03-18T23:23:23.992Z,28.60
2023-03-18T23:25:53.400Z,34.38
2023-03-18T23:28:21.509Z,37.47
2023-03-18T23:30:51.065Z,35.58
2023-03-18T23:33:19.848Z,33.22
2023-03-18T23:35:49.275Z,25.15
2023-03-18T23:38:17.499Z,35.55
2023-03-18T23:40:45.667Z,36.47
2023-03-18T23:43:13.674Z,38.67
2023-03-18T23:45:41.885Z,38.78
2023-03-18T23:48:10.020Z,38.47
2023-03-18T23:50:38.039Z,35.20
2023-03-18T23:53:07.381Z,31.20
2023-03-18T23:55:36.043Z,40.95
2023-03-18T23:58:04.204Z,42.05
